createdAt,value
2018-12-18T00:00:05.941Z,6.20
2018-12-18T00:02:35.505Z,6.30
2018-12-18T00:05:09.944Z,6.40
2018-12-18T00:07:38.635Z,6.50
2018-12-18T00:10:09.043Z,6.50
2018-12-18T00:12:38.910Z,6.50
2018-12-18T00:15:07.689Z,6.60
2018-12-18T00:17:36.490Z,6.60
2018-12-18T00:20:05.682Z,6.80
2018-12-18T00:22:34.273Z,6.80
2018-12-18T00:25:03.131Z,6.90
2018-12-18T00:27:31.648Z,6.90
2018-12-18T00:30:00.616Z,7.00
2018-12-18T00:32:29.333Z,7.00
2018-12-18T00:34:57.919Z,7.00
2018-12-18T00:37:26.766Z,7.00
2018-12-18T00:39:55.251Z,7.10
2018-12-18T00:42:23.798Z,7.10
2018-12-18T00:44:52.393Z,7.10
2018-12-18T00:47:20.871Z,7.20
2018-12-18T00:49:49.331Z,7.20
2018-12-18T00:52:17.877Z,7.20
2018-12-18T00:54:46.407Z,7.20
2018-12-18T00:57:15.626Z,7.30
2018-12-18T00:59:44.325Z,7.30
2018-12-18T01:02:12.817Z,7.30
2018-12-18T01:04:41.402Z,7.30
2018-12-18T01:07:10.049Z,7.30
2018-12-18T01:09:38.978Z,7.30
2018-12-18T01:12:07.539Z,7.30
2018-12-18T01:14:36.461Z,7.40
2018-12-18T01:17:05.035Z,7.40
2018-12-18T01:19:33.596Z,7.40
2018-12-18T01:22:02.821Z,7.40
2018-12-18T01:24:31.661Z,7.40
2018-12-18T01:27:00.297Z,7.40
2018-12-18T01:29:29.603Z,7.40
2018-12-18T01:31:59.454Z,7.40
2018-12-18T01:34:28.033Z,7.50
2018-12-18T01:36:56.572Z,7.50
2018-12-18T01:39:25.735Z,7.50
2018-12-18T01:41:54.318Z,7.50
2018-12-18T01:44:23.282Z,7.50
2018-12-18T01:46:52.714Z,7.50
2018-12-18T01:49:21.277Z,7.50
2018-12-18T01:51:49.803Z,7.50
2018-12-18T01:54:18.286Z,7.50
2018-12-18T01:56:46.787Z,7.50
2018-12-18T01:59:15.963Z,7.50
2018-12-18T02:01:44.607Z,7.50
2018-12-18T02:04:13.280Z,7.50
2018-12-18T02:06:41.864Z,7.60
2018-12-18T02:09:11.439Z,7.60
2018-12-18T02:11:40.801Z,7.60
2018-12-18T02:14:09.883Z,7.60
2018-12-18T02:16:38.754Z,7.70
2018-12-18T02:19:07.839Z,7.70
2018-12-18T02:21:36.434Z,7.70
2018-12-18T02:24:04.966Z,7.70
2018-12-18T02:26:33.874Z,7.70
2018-12-18T02:29:02.505Z,7.60
2018-12-18T02:31:31.834Z,7.70
2018-12-18T02:34:00.419Z,7.60
2018-12-18T02:36:29.490Z,7.60
2018-12-18T02:38:58.541Z,7.70
2018-12-18T02:41:27.097Z,7.60
2018-12-18T02:43:56.165Z,7.60
2018-12-18T02:46:24.817Z,7.70
2018-12-18T02:48:53.335Z,7.60
2018-12-18T02:51:22.309Z,7.60
2018-12-18T02:53:50.861Z,7.70
2018-12-18T02:56:19.756Z,7.70
2018-12-18T02:58:48.338Z,7.70
2018-12-18T03:01:16.846Z,7.70
2018-12-18T03:03:45.365Z,7.70
2018-12-18T03:06:13.859Z,7.70
2018-12-18T03:08:42.755Z,7.70
2018-12-18T03:11:15.483Z,7.60
2018-12-18T03:13:44.566Z,7.60
2018-12-18T03:16:14.010Z,7.60
2018-12-18T03:18:42.573Z,7.60
2018-12-18T03:21:11.102Z,7.60
2018-12-18T03:23:40.010Z,7.60
2018-12-18T03:26:08.635Z,7.60
2018-12-18T03:28:37.397Z,7.60
2018-12-18T03:31:06.102Z,7.60
2018-12-18T03:33:34.581Z,7.60
2018-12-18T03:36:03.249Z,7.60
2018-12-18T03:38:31.772Z,7.60
2018-12-18T03:41:00.307Z,7.60
2018-12-18T03:43:29.158Z,7.60
2018-12-18T03:45:58.118Z,7.60
2018-12-18T03:48:26.689Z,7.60
2018-12-18T03:50:55.186Z,7.60
2018-12-18T03:53:23.681Z,7.60
2018-12-18T03:55:52.217Z,7.60
2018-12-18T03:58:20.871Z,7.60
2018-12-18T04:00:49.354Z,7.50
2018-12-18T04:03:17.840Z,7.60
2018-12-18T04:05:46.391Z,7.60
2018-12-18T04:08:15.447Z,7.60
2018-12-18T04:10:44.492Z,7.60
2018-12-18T04:13:13.254Z,7.60
2018-12-18T04:15:41.839Z,7.60
2018-12-18T04:18:10.403Z,7.60
2018-12-18T04:20:39.191Z,7.60
2018-12-18T04:23:07.831Z,7.50
2018-12-18T04:25:36.597Z,7.50
2018-12-18T04:28:05.769Z,7.50
2018-12-18T04:30:34.240Z,7.50
2018-12-18T04:33:02.747Z,7.50
2018-12-18T04:35:31.307Z,7.50
2018-12-18T04:37:59.817Z,7.50
2018-12-18T04:40:28.279Z,7.50
2018-12-18T04:42:56.718Z,7.40
2018-12-18T04:45:25.276Z,7.40
2018-12-18T04:47:53.774Z,7.40
2018-12-18T04:50:29.398Z,7.40
2018-12-18T04:52:57.872Z,7.40
2018-12-18T04:55:26.442Z,7.30
2018-12-18T04:57:54.946Z,7.30
2018-12-18T05:00:23.534Z,7.30
2018-12-18T05:02:52.127Z,7.30
2018-12-18T05:05:21.313Z,7.40
2018-12-18T05:07:50.245Z,7.30
2018-12-18T05:10:18.746Z,7.30
2018-12-18T05:12:47.282Z,7.40
2018-12-18T05:15:16.153Z,7.40
2018-12-18T05:17:44.644Z,7.40
2018-12-18T05:20:14.137Z,7.40
2018-12-18T05:22:43.223Z,7.40
2018-12-18T05:25:11.675Z,7.40
2018-12-18T05:27:40.746Z,7.40
2018-12-18T05:30:09.436Z,7.50
2018-12-18T05:32:41.916Z,7.50
2018-12-18T05:35:10.612Z,7.50
2018-12-18T05:37:39.162Z,7.50
2018-12-18T05:40:08.965Z,7.50
2018-12-18T05:42:37.718Z,7.40
2018-12-18T05:45:06.337Z,7.40
2018-12-18T05:47:35.323Z,7.50
2018-12-18T05:50:04.052Z,7.50
2018-12-18T05:52:32.907Z,7.50
2018-12-18T05:55:01.764Z,7.50
2018-12-18T05:57:30.514Z,7.50
2018-12-18T05:59:59.058Z,7.50
2018-12-18T06:02:28.195Z,7.50
2018-12-18T06:05:03.014Z,7.50
2018-12-18T06:07:28.681Z,7.50
2018-12-18T06:09:57.173Z,7.50
2018-12-18T06:12:25.881Z,7.60
2018-12-18T06:14:54.764Z,7.60
2018-12-18T06:17:23.862Z,7.50
2018-12-18T06:19:53.123Z,7.60
2018-12-18T06:22:21.826Z,7.60
2018-12-18T06:24:50.421Z,7.60
2018-12-18T06:27:18.907Z,7.60
2018-12-18T06:29:47.988Z,7.60
2018-12-18T06:32:16.548Z,7.60
2018-12-18T06:34:45.809Z,7.60
2018-12-18T06:37:14.445Z,7.60
2018-12-18T06:39:42.939Z,7.60
2018-12-18T06:42:12.068Z,7.60
2018-12-18T06:44:40.883Z,7.60
2018-12-18T06:47:09.496Z,7.60
2018-12-18T06:49:38.117Z,7.60
2018-12-18T06:52:06.690Z,7.60
2018-12-18T06:54:36.002Z,7.60
2018-12-18T06:57:05.279Z,7.60
2018-12-18T06:59:33.860Z,7.60
2018-12-18T07:02:02.430Z,7.60
2018-12-18T07:04:31.890Z,7.60
2018-12-18T07:07:00.683Z,7.60
2018-12-18T07:09:29.572Z,7.60
2018-12-18T07:11:58.309Z,7.70
2018-12-18T07:14:27.981Z,7.70
2018-12-18T07:16:56.465Z,7.70
2018-12-18T07:19:25.500Z,7.70
2018-12-18T07:21:55.190Z,7.70
2018-12-18T07:24:23.705Z,7.70
2018-12-18T07:26:52.250Z,7.70
2018-12-18T07:29:20.762Z,7.70
2018-12-18T07:31:49.348Z,7.70
2018-12-18T07:34:17.925Z,7.70
2018-12-18T07:36:46.711Z,7.70
2018-12-18T07:39:15.701Z,7.80
2018-12-18T07:41:44.346Z,7.80
2018-12-18T07:44:12.853Z,7.80
2018-12-18T07:46:41.414Z,7.80
2018-12-18T07:49:09.969Z,7.80
2018-12-18T07:51:39.262Z,7.80
2018-12-18T07:54:07.852Z,7.80
2018-12-18T07:56:37.006Z,7.80
2018-12-18T07:59:06.736Z,7.80
2018-12-18T08:01:36.026Z,7.80
2018-12-18T08:04:04.683Z,7.90
2018-12-18T08:06:33.791Z,7.90
2018-12-18T08:09:02.628Z,7.90
2018-12-18T08:11:31.438Z,7.90
2018-12-18T08:13:59.930Z,7.90
2018-12-18T08:16:28.699Z,7.90
2018-12-18T08:18:57.557Z,7.90
2018-12-18T08:21:26.153Z,7.90
2018-12-18T08:23:54.709Z,7.90
2018-12-18T08:26:23.242Z,8.00
2018-12-18T08:28:52.076Z,8.00
2018-12-18T08:31:20.652Z,8.00
2018-12-18T08:33:49.666Z,8.00
2018-12-18T08:36:18.890Z,8.10
2018-12-18T08:38:48.285Z,8.10
2018-12-18T08:41:17.185Z,8.10
2018-12-18T08:43:46.696Z,8.00
2018-12-18T08:46:19.006Z,8.00
2018-12-18T08:48:47.896Z,8.00
2018-12-18T08:51:16.474Z,8.10
2018-12-18T08:53:46.757Z,8.10
2018-12-18T08:56:16.085Z,8.20
2018-12-18T08:58:44.926Z,8.20
2018-12-18T09:01:13.500Z,8.20
2018-12-18T09:03:43.146Z,8.20
2018-12-18T09:06:11.812Z,8.30
2018-12-18T09:08:40.386Z,8.20
2018-12-18T09:11:08.879Z,8.30
2018-12-18T09:13:37.468Z,8.30
2018-12-18T09:16:10.247Z,8.30
2018-12-18T09:18:38.739Z,8.40
2018-12-18T09:21:07.275Z,8.40
2018-12-18T09:23:35.793Z,8.40
2018-12-18T09:26:04.892Z,8.40
2018-12-18T09:28:34.773Z,8.40
2018-12-18T09:31:03.380Z,8.40
2018-12-18T09:33:31.914Z,8.40
2018-12-18T09:36:00.576Z,8.50
2018-12-18T09:38:34.876Z,8.50
2018-12-18T09:41:09.830Z,8.50
2018-12-18T09:43:43.906Z,8.50
2018-12-18T09:46:12.421Z,8.50
2018-12-18T09:48:40.953Z,8.50
2018-12-18T09:51:09.612Z,8.60
2018-12-18T09:53:38.396Z,8.60
2018-12-18T09:56:07.030Z,8.70
2018-12-18T09:58:35.490Z,8.70
2018-12-18T10:01:04.155Z,8.80
2018-12-18T10:03:33.596Z,8.90
2018-12-18T10:06:02.851Z,8.90
2018-12-18T10:08:31.821Z,8.90
2018-12-18T10:11:00.505Z,8.90
2018-12-18T10:13:29.135Z,8.90
2018-12-18T10:15:57.985Z,8.90
2018-12-18T10:18:26.786Z,9.00
2018-12-18T10:20:55.808Z,9.00
2018-12-18T10:23:25.237Z,9.00
2018-12-18T10:25:54.717Z,9.00
2018-12-18T10:28:23.395Z,9.00
2018-12-18T10:30:52.094Z,9.00
2018-12-18T10:33:21.685Z,9.00
2018-12-18T10:35:50.357Z,8.90
2018-12-18T10:38:19.363Z,8.90
2018-12-18T10:40:48.247Z,8.90
2018-12-18T10:43:16.989Z,8.90
2018-12-18T10:45:45.948Z,9.00
2018-12-18T10:48:14.647Z,9.00
2018-12-18T10:50:43.736Z,9.00
2018-12-18T10:53:12.528Z,9.00
2018-12-18T10:55:41.804Z,9.00
2018-12-18T10:58:11.762Z,9.00
2018-12-18T11:00:46.335Z,9.10
2018-12-18T11:03:15.551Z,9.10
2018-12-18T11:05:45.023Z,9.10
2018-12-18T11:08:13.883Z,9.10
2018-12-18T11:10:42.724Z,9.20
2018-12-18T11:13:18.101Z,9.30
2018-12-18T11:15:48.226Z,9.30
2018-12-18T11:18:18.222Z,9.30
2018-12-18T11:20:47.185Z,9.40
2018-12-18T11:23:15.855Z,9.40
2018-12-18T11:25:44.799Z,9.30
2018-12-18T11:28:14.100Z,9.40
2018-12-18T11:30:42.671Z,9.40
2018-12-18T11:33:11.506Z,9.40
2018-12-18T11:35:40.946Z,9.50
2018-12-18T11:38:10.329Z,9.60
2018-12-18T11:40:39.090Z,9.60
2018-12-18T11:43:07.884Z,9.60
2018-12-18T11:45:36.503Z,9.70
2018-12-18T11:48:06.638Z,9.70
2018-12-18T11:50:35.255Z,9.90
2018-12-18T11:53:04.478Z,9.90
2018-12-18T11:55:33.075Z,10.20
2018-12-18T11:58:02.597Z,10.50
2018-12-18T12:00:31.261Z,11.00
2018-12-18T12:02:59.965Z,11.10
2018-12-18T12:05:28.643Z,11.10
2018-12-18T12:07:58.467Z,10.80
2018-12-18T12:10:27.241Z,10.60
2018-12-18T12:12:56.002Z,10.30
2018-12-18T12:15:24.927Z,10.00
2018-12-18T12:17:54.797Z,10.00
2018-12-18T12:20:23.947Z,9.80
2018-12-18T12:22:52.481Z,9.70
2018-12-18T12:25:21.197Z,9.70
2018-12-18T12:27:55.479Z,9.70
2018-12-18T12:30:24.201Z,9.60
2018-12-18T12:32:52.862Z,9.50
2018-12-18T12:35:21.510Z,9.60
2018-12-18T12:37:50.260Z,9.80
2018-12-18T12:40:19.613Z,10.00
2018-12-18T12:42:48.396Z,10.10
2018-12-18T12:45:18.110Z,10.10
2018-12-18T12:47:51.505Z,10.00
2018-12-18T12:50:21.150Z,9.90
2018-12-18T12:52:50.300Z,9.80
2018-12-18T12:55:18.919Z,9.60
2018-12-18T12:57:47.708Z,9.50
2018-12-18T13:00:16.372Z,9.50
2018-12-18T13:02:45.097Z,9.50
2018-12-18T13:05:14.597Z,9.50
2018-12-18T13:07:44.401Z,9.40
2018-12-18T13:10:13.868Z,9.40
2018-12-18T13:12:42.837Z,9.40
2018-12-18T13:15:12.549Z,9.40
2018-12-18T13:17:41.535Z,9.40
2018-12-18T13:20:10.076Z,9.40
2018-12-18T13:22:39.259Z,9.40
2018-12-18T13:25:08.060Z,9.40
2018-12-18T13:27:37.441Z,9.40
2018-12-18T13:30:06.882Z,9.40
2018-12-18T13:32:35.581Z,9.40
2018-12-18T13:35:04.959Z,9.40
2018-12-18T13:37:33.864Z,9.40
2018-12-18T13:40:02.484Z,9.30
2018-12-18T13:42:31.103Z,9.30
2018-12-18T13:44:59.858Z,9.30
2018-12-18T13:47:28.500Z,9.30
2018-12-18T13:49:57.503Z,9.30
2018-12-18T13:52:27.145Z,9.30
2018-12-18T13:54:56.711Z,9.40
2018-12-18T13:57:25.320Z,9.30
2018-12-18T13:59:54.007Z,9.30
2018-12-18T14:02:22.957Z,9.40
2018-12-18T14:04:51.715Z,9.40
2018-12-18T14:07:20.765Z,9.40
2018-12-18T14:09:50.102Z,9.40
2018-12-18T14:12:19.803Z,9.40
2018-12-18T14:14:49.500Z,9.40
2018-12-18T14:17:18.188Z,9.40
2018-12-18T14:19:47.324Z,9.30
2018-12-18T14:22:19.010Z,9.30
2018-12-18T14:24:48.003Z,9.30
2018-12-18T14:27:16.907Z,9.30
2018-12-18T14:29:45.627Z,9.30
2018-12-18T14:32:14.299Z,9.30
2018-12-18T14:34:44.252Z,9.30
2018-12-18T14:37:13.712Z,9.30
2018-12-18T14:39:42.435Z,9.30
2018-12-18T14:42:11.064Z,9.30
2018-12-18T14:44:39.822Z,9.30
2018-12-18T14:47:09.130Z,9.30
2018-12-18T14:49:37.723Z,9.30
2018-12-18T14:52:06.303Z,9.30
2018-12-18T14:54:35.842Z,9.30
2018-12-18T14:57:04.548Z,9.30
2018-12-18T14:59:34.012Z,9.30
2018-12-18T15:02:02.823Z,9.30
2018-12-18T15:04:32.291Z,9.30
2018-12-18T15:07:03.058Z,9.30
2018-12-18T15:09:32.060Z,9.30
2018-12-18T15:12:01.635Z,9.30
2018-12-18T15:14:30.482Z,9.30
2018-12-18T15:16:59.136Z,9.30
2018-12-18T15:19:28.534Z,9.30
2018-12-18T15:21:57.221Z,9.30
2018-12-18T15:24:25.819Z,9.30
2018-12-18T15:26:55.011Z,9.30
2018-12-18T15:29:25.375Z,9.20
2018-12-18T15:31:54.621Z,9.30
2018-12-18T15:34:23.635Z,9.30
2018-12-18T15:36:52.469Z,9.20
2018-12-18T15:39:21.863Z,9.20
2018-12-18T15:41:50.581Z,9.20
2018-12-18T15:44:19.707Z,9.10
2018-12-18T15:46:50.221Z,9.10
2018-12-18T15:49:20.569Z,9.10
2018-12-18T15:51:49.424Z,9.00
2018-12-18T15:54:18.026Z,9.10
2018-12-18T15:56:47.425Z,9.00
2018-12-18T15:59:16.198Z,9.00
2018-12-18T16:01:45.151Z,9.00
2018-12-18T16:04:15.378Z,9.00
2018-12-18T16:06:44.933Z,8.90
2018-12-18T16:09:13.741Z,8.90
2018-12-18T16:11:43.161Z,8.90
2018-12-18T16:14:11.745Z,8.90
2018-12-18T16:16:41.478Z,8.90
2018-12-18T16:19:10.798Z,8.90
2018-12-18T16:21:40.658Z,8.90
2018-12-18T16:24:09.633Z,8.90
2018-12-18T16:26:38.220Z,8.90
2018-12-18T16:29:06.829Z,8.90
2018-12-18T16:31:35.418Z,8.90
2018-12-18T16:34:04.490Z,8.80
2018-12-18T16:36:33.806Z,8.80
2018-12-18T16:39:05.800Z,8.80
2018-12-18T16:41:34.476Z,8.80
2018-12-18T16:44:03.887Z,8.80
2018-12-18T16:46:33.404Z,8.70
2018-12-18T16:49:01.837Z,8.70
2018-12-18T16:51:31.534Z,8.70
2018-12-18T16:54:00.806Z,8.70
2018-12-18T16:56:29.863Z,8.70
2018-12-18T16:58:58.896Z,8.60
2018-12-18T17:01:27.654Z,8.60
2018-12-18T17:03:56.313Z,8.60
2018-12-18T17:06:25.228Z,8.60
2018-12-18T17:08:54.197Z,8.60
2018-12-18T17:11:23.189Z,8.60
2018-12-18T17:13:52.581Z,8.60
2018-12-18T17:16:21.461Z,8.60
2018-12-18T17:18:50.348Z,8.50
2018-12-18T17:21:22.346Z,8.60
2018-12-18T17:23:50.943Z,8.50
2018-12-18T17:26:19.996Z,8.50
2018-12-18T17:28:49.370Z,8.50
2018-12-18T17:31:18.034Z,8.50
2018-12-18T17:33:47.448Z,8.50
2018-12-18T17:36:15.947Z,8.50
2018-12-18T17:38:45.229Z,8.50
2018-12-18T17:41:14.600Z,8.50
2018-12-18T17:43:43.460Z,8.50
2018-12-18T17:46:13.457Z,8.50
2018-12-18T17:48:43.303Z,8.50
2018-12-18T17:51:12.531Z,8.50
2018-12-18T17:53:43.090Z,8.50
2018-12-18T17:56:12.125Z,8.50
2018-12-18T17:58:40.726Z,8.50
2018-12-18T18:01:10.854Z,8.50
2018-12-18T18:03:39.919Z,8.50
2018-12-18T18:06:08.450Z,8.50
2018-12-18T18:08:36.946Z,8.50
2018-12-18T18:11:05.894Z,8.50
2018-12-18T18:13:35.491Z,8.50
2018-12-18T18:16:04.152Z,8.50
2018-12-18T18:18:32.754Z,8.50
2018-12-18T18:21:01.390Z,8.50
2018-12-18T18:23:31.963Z,8.50
2018-12-18T18:26:00.797Z,8.50
2018-12-18T18:28:29.274Z,8.60
2018-12-18T18:30:58.623Z,8.50
2018-12-18T18:33:27.295Z,8.50
2018-12-18T18:35:57.424Z,8.60
2018-12-18T18:38:26.245Z,8.60
2018-12-18T18:40:55.319Z,8.60
2018-12-18T18:43:25.056Z,8.60
2018-12-18T18:45:54.839Z,8.60
2018-12-18T18:48:24.145Z,8.60
2018-12-18T18:50:53.898Z,8.60
2018-12-18T18:53:23.521Z,8.70
2018-12-18T18:55:52.196Z,8.60
2018-12-18T18:58:20.920Z,8.70
2018-12-18T19:00:49.517Z,8.60
2018-12-18T19:03:18.238Z,8.60
2018-12-18T19:05:46.902Z,8.70
2018-12-18T19:08:16.149Z,8.70
2018-12-18T19:10:45.060Z,8.70
2018-12-18T19:13:14.552Z,8.70
2018-12-18T19:15:43.659Z,8.70
2018-12-18T19:18:12.313Z,8.70
2018-12-18T19:20:41.399Z,8.70
2018-12-18T19:23:09.963Z,8.70
2018-12-18T19:25:38.601Z,8.70
2018-12-18T19:28:07.637Z,8.70
2018-12-18T19:30:37.097Z,8.70
2018-12-18T19:33:06.118Z,8.70
2018-12-18T19:35:35.498Z,8.70
2018-12-18T19:38:03.997Z,8.60
2018-12-18T19:40:33.089Z,8.60
2018-12-18T19:43:01.960Z,8.60
2018-12-18T19:45:30.469Z,8.60
2018-12-18T19:47:59.996Z,8.60
2018-12-18T19:50:28.517Z,8.60
2018-12-18T19:52:57.107Z,8.60
2018-12-18T19:55:26.071Z,8.50
2018-12-18T19:57:55.741Z,8.50
2018-12-18T20:00:24.482Z,8.50
2018-12-18T20:02:53.618Z,8.50
2018-12-18T20:05:22.335Z,8.50
2018-12-18T20:07:50.832Z,8.40
2018-12-18T20:10:19.374Z,8.50
2018-12-18T20:12:48.343Z,8.50
2018-12-18T20:15:16.875Z,8.40
2018-12-18T20:17:45.437Z,8.40
2018-12-18T20:20:14.307Z,8.40
2018-12-18T20:22:43.180Z,8.40
2018-12-18T20:25:11.855Z,8.40
2018-12-18T20:27:40.868Z,8.40
2018-12-18T20:30:09.686Z,8.40
2018-12-18T20:32:39.050Z,8.40
2018-12-18T20:35:07.682Z,8.40
2018-12-18T20:37:36.401Z,8.40
2018-12-18T20:40:06.768Z,8.30
2018-12-18T20:42:36.079Z,8.30
2018-12-18T20:45:05.591Z,8.30
2018-12-18T20:47:34.692Z,8.30
2018-12-18T20:50:03.422Z,8.20
2018-12-18T20:52:32.319Z,8.20
2018-12-18T20:55:01.004Z,8.20
2018-12-18T20:57:30.117Z,8.20
2018-12-18T20:59:59.971Z,8.20
2018-12-18T21:02:29.906Z,8.10
2018-12-18T21:04:59.565Z,8.10
2018-12-18T21:07:28.262Z,8.10
2018-12-18T21:09:56.812Z,8.10
2018-12-18T21:12:25.455Z,8.10
2018-12-18T21:15:00.547Z,8.20
2018-12-18T21:17:25.538Z,8.10
2018-12-18T21:19:54.834Z,8.20
2018-12-18T21:22:23.449Z,8.10
2018-12-18T21:24:52.548Z,8.20
2018-12-18T21:27:22.036Z,8.20
2018-12-18T21:29:50.789Z,8.20
2018-12-18T21:32:19.411Z,8.20
2018-12-18T21:34:47.974Z,8.20
2018-12-18T21:37:16.616Z,8.20
2018-12-18T21:39:45.654Z,8.20
2018-12-18T21:42:14.408Z,8.20
2018-12-18T21:44:43.121Z,8.20
2018-12-18T21:47:11.696Z,8.20
2018-12-18T21:49:40.508Z,8.10
2018-12-18T21:52:09.548Z,8.10
2018-12-18T21:54:38.127Z,8.10
2018-12-18T21:57:06.774Z,8.10
2018-12-18T21:59:35.309Z,8.10
2018-12-18T22:02:04.347Z,8.10
2018-12-18T22:04:32.944Z,8.10
2018-12-18T22:07:01.524Z,8.10
2018-12-18T22:09:30.217Z,8.10
2018-12-18T22:11:58.753Z,8.00
2018-12-18T22:14:27.779Z,8.00
2018-12-18T22:16:56.589Z,8.00
2018-12-18T22:19:25.221Z,8.00
2018-12-18T22:21:54.533Z,8.00
2018-12-18T22:24:23.366Z,8.00
2018-12-18T22:26:51.985Z,7.90
2018-12-18T22:29:20.577Z,7.90
2018-12-18T22:31:49.284Z,8.00
2018-12-18T22:34:17.904Z,8.00
2018-12-18T22:36:46.626Z,8.00
2018-12-18T22:39:15.685Z,8.00
2018-12-18T22:41:44.285Z,8.00
2018-12-18T22:44:13.070Z,8.00
2018-12-18T22:46:41.616Z,8.00
2018-12-18T22:49:10.200Z,8.00
2018-12-18T22:51:38.861Z,8.00
2018-12-18T22:54:07.481Z,8.00
2018-12-18T22:56:37.536Z,8.10
2018-12-18T22:59:06.172Z,8.00
2018-12-18T23:01:41.137Z,7.90
2018-12-18T23:04:09.813Z,7.90
2018-12-18T23:06:38.431Z,7.90
2018-12-18T23:09:11.413Z,7.90
2018-12-18T23:11:40.076Z,7.90
2018-12-18T23:14:09.353Z,7.90
2018-12-18T23:16:38.332Z,7.90
2018-12-18T23:19:07.508Z,7.90
2018-12-18T23:21:36.752Z,7.90
2018-12-18T23:24:05.647Z,7.90
2018-12-18T23:26:34.245Z,7.90
2018-12-18T23:29:02.817Z,7.80
2018-12-18T23:31:31.841Z,7.70
2018-12-18T23:34:00.732Z,7.60
2018-12-18T23:36:29.916Z,7.60
2018-12-18T23:38:58.544Z,7.60
2018-12-18T23:41:27.096Z,7.60
2018-12-18T23:43:55.676Z,7.50
2018-12-18T23:46:24.301Z,7.40
2018-12-18T23:48:53.619Z,7.50
2018-12-18T23:51:22.521Z,7.50
2018-12-18T23:53:51.178Z,7.50
2018-12-18T23:56:19.707Z,7.50
2018-12-18T23:58:48.768Z,7.50
